sensor_id;sensor_type;location;lat;lon;timestamp;pressure;altitude;pressure_sealevel;temperature;humidity
17936;BME280;9093;52.062;4.508;2023-03-21T00:01:20;101904.06;;;10.33;85.79
17936;BME280;9093;52.062;4.508;2023-03-21T00:04:02;101899.50;;;10.37;85.76
17936;BME280;9093;52.062;4.508;2023-03-21T00:06:42;101905.81;;;10.34;85.95
17936;BME280;9093;52.062;4.508;2023-03-21T00:09:22;101897.81;;;10.34;85.96
17936;BME280;9093;52.062;4.508;2023-03-21T00:12:03;101896.00;;;10.35;85.75
17936;BME280;9093;52.062;4.508;2023-03-21T00:14:46;101898.63;;;10.36;85.69
17936;BME280;9093;52.062;4.508;2023-03-21T00:17:26;101895.88;;;10.38;85.83
17936;BME280;9093;52.062;4.508;2023-03-21T00:20:11;101900.34;;;10.37;85.82
17936;BME280;9093;52.062;4.508;2023-03-21T00:22:53;101891.53;;;10.35;86.04
17936;BME280;9093;52.062;4.508;2023-03-21T00:25:34;101895.00;;;10.37;85.87
17936;BME280;9093;52.062;4.508;2023-03-21T00:28:14;101896.75;;;10.38;85.68
17936;BME280;9093;52.062;4.508;2023-03-21T00:30:58;101895.00;;;10.37;85.75
17936;BME280;9093;52.062;4.508;2023-03-21T00:33:39;101887.81;;;10.39;85.99
17936;BME280;9093;52.062;4.508;2023-03-21T00:36:19;101892.28;;;10.39;85.84
17936;BME280;9093;52.062;4.508;2023-03-21T00:39:00;101893.16;;;10.39;85.87
17936;BME280;9093;52.062;4.508;2023-03-21T00:41:41;101889.66;;;10.37;85.86
17936;BME280;9093;52.062;4.508;2023-03-21T00:44:21;101886.09;;;10.38;85.88
17936;BME280;9093;52.062;4.508;2023-03-21T00:47:02;101885.22;;;10.38;85.78
17936;BME280;9093;52.062;4.508;2023-03-21T00:49:44;101886.94;;;10.39;85.84
17936;BME280;9093;52.062;4.508;2023-03-21T00:52:25;101881.66;;;10.37;85.79
17936;BME280;9093;52.062;4.508;2023-03-21T00:55:05;101876.28;;;10.39;86.06
17936;BME280;9093;52.062;4.508;2023-03-21T00:57:46;101877.16;;;10.39;85.76
17936;BME280;9093;52.062;4.508;2023-03-21T01:00:27;101871.81;;;10.39;85.73
17936;BME280;9093;52.062;4.508;2023-03-21T01:03:10;101870.06;;;10.38;85.77
17936;BME280;9093;52.062;4.508;2023-03-21T01:05:51;101859.28;;;10.41;85.84
17936;BME280;9093;52.062;4.508;2023-03-21T01:08:46;101851.31;;;10.40;85.85
17936;BME280;9093;52.062;4.508;2023-03-21T01:11:27;101854.03;;;10.38;85.78
17936;BME280;9093;52.062;4.508;2023-03-21T01:14:08;101852.28;;;10.37;85.91
17936;BME280;9093;52.062;4.508;2023-03-21T01:16:52;101847.97;;;10.35;85.74
17936;BME280;9093;52.062;4.508;2023-03-21T01:19:33;101840.78;;;10.37;85.86
17936;BME280;9093;52.062;4.508;2023-03-21T01:22:13;101843.44;;;10.37;85.72
17936;BME280;9093;52.062;4.508;2023-03-21T01:24:53;101836.34;;;10.36;85.99
17936;BME280;9093;52.062;4.508;2023-03-21T01:27:34;101832.69;;;10.38;85.57
17936;BME280;9093;52.062;4.508;2023-03-21T01:30:14;101823.81;;;10.38;85.88
17936;BME280;9093;52.062;4.508;2023-03-21T01:32:54;101827.34;;;10.38;85.89
17936;BME280;9093;52.062;4.508;2023-03-21T01:35:35;101819.34;;;10.38;85.85
17936;BME280;9093;52.062;4.508;2023-03-21T01:38:16;101818.41;;;10.39;85.97
17936;BME280;9093;52.062;4.508;2023-03-21T01:40:59;101818.31;;;10.42;85.94
17936;BME280;9093;52.062;4.508;2023-03-21T01:43:41;101814.69;;;10.43;86.00
17936;BME280;9093;52.062;4.508;2023-03-21T01:46:36;101819.09;;;10.44;85.90
17936;BME280;9093;52.062;4.508;2023-03-21T01:49:40;101816.56;;;10.41;86.09
17936;BME280;9093;52.062;4.508;2023-03-21T01:52:35;101816.56;;;10.41;85.87
17936;BME280;9093;52.062;4.508;2023-03-21T01:55:17;101814.69;;;10.43;85.99
17936;BME280;9093;52.062;4.508;2023-03-21T01:57:59;101817.34;;;10.43;85.74
17936;BME280;9093;52.062;4.508;2023-03-21T02:00:41;101811.09;;;10.44;85.89
17936;BME280;9093;52.062;4.508;2023-03-21T02:03:22;101809.34;;;10.43;85.91
17936;BME280;9093;52.062;4.508;2023-03-21T02:06:13;101808.50;;;10.43;85.78
17936;BME280;9093;52.062;4.508;2023-03-21T02:08:57;101806.06;;;10.37;85.59
17936;BME280;9093;52.062;4.508;2023-03-21T02:11:40;101801.56;;;10.37;85.71
17936;BME280;9093;52.062;4.508;2023-03-21T02:14:20;101798.84;;;10.39;85.78
17936;BME280;9093;52.062;4.508;2023-03-21T02:17:22;101800.66;;;10.38;86.00
17936;BME280;9093;52.062;4.508;2023-03-21T02:20:26;101806.91;;;10.37;85.71
17936;BME280;9093;52.062;4.508;2023-03-21T02:26:41;101788.31;;;10.36;85.93
17936;BME280;9093;52.062;4.508;2023-03-21T02:29:38;101782.88;;;10.37;85.93
17936;BME280;9093;52.062;4.508;2023-03-21T02:35:27;101778.50;;;10.36;86.08
17936;BME280;9093;52.062;4.508;2023-03-21T02:38:17;101770.50;;;10.36;86.00
17936;BME280;9093;52.062;4.508;2023-03-21T02:41:20;101769.53;;;10.37;85.88
17936;BME280;9093;52.062;4.508;2023-03-21T02:44:16;101762.41;;;10.38;85.91
17936;BME280;9093;52.062;4.508;2023-03-21T02:47:06;101765.03;;;10.39;85.81
17936;BME280;9093;52.062;4.508;2023-03-21T02:52:33;101763.19;;;10.41;86.04
17936;BME280;9093;52.062;4.508;2023-03-21T02:55:20;101754.28;;;10.41;85.94
17936;BME280;9093;52.062;4.508;2023-03-21T02:58:03;101755.22;;;10.40;85.99
17936;BME280;9093;52.062;4.508;2023-03-21T03:00:46;101763.19;;;10.41;85.67
17936;BME280;9093;52.062;4.508;2023-03-21T03:03:27;101752.50;;;10.41;85.75
17936;BME280;9093;52.062;4.508;2023-03-21T03:06:18;101752.50;;;10.41;85.71
17936;BME280;9093;52.062;4.508;2023-03-21T03:12:09;101755.13;;;10.43;85.53
17936;BME280;9093;52.062;4.508;2023-03-21T03:15:10;101761.28;;;10.43;85.66
17936;BME280;9093;52.062;4.508;2023-03-21T03:18:06;101758.63;;;10.43;85.78
17936;BME280;9093;52.062;4.508;2023-03-21T03:26:47;101755.16;;;10.41;85.55
17936;BME280;9093;52.062;4.508;2023-03-21T03:29:32;101754.34;;;10.39;85.66
17936;BME280;9093;52.062;4.508;2023-03-21T03:32:30;101757.00;;;10.39;85.76
17936;BME280;9093;52.062;4.508;2023-03-21T03:35:16;101749.00;;;10.39;85.82
17936;BME280;9093;52.062;4.508;2023-03-21T03:38:00;101741.91;;;10.38;85.59
17936;BME280;9093;52.062;4.508;2023-03-21T03:40:49;101742.78;;;10.39;85.70
17936;BME280;9093;52.062;4.508;2023-03-21T03:43:37;101736.47;;;10.41;85.67
17936;BME280;9093;52.062;4.508;2023-03-21T03:46:36;101739.19;;;10.40;85.70
17936;BME280;9093;52.062;4.508;2023-03-21T03:49:22;101731.13;;;10.41;85.58
17936;BME280;9093;52.062;4.508;2023-03-21T03:52:11;101734.59;;;10.43;85.65
17936;BME280;9093;52.062;4.508;2023-03-21T03:54:53;101732.78;;;10.44;85.58
17936;BME280;9093;52.062;4.508;2023-03-21T03:57:34;101734.59;;;10.43;85.63
17936;BME280;9093;52.062;4.508;2023-03-21T04:00:15;101729.25;;;10.43;85.68
17936;BME280;9093;52.062;4.508;2023-03-21T04:02:56;101726.59;;;10.43;85.58
17936;BME280;9093;52.062;4.508;2023-03-21T04:05:38;101729.25;;;10.43;85.51
17936;BME280;9093;52.062;4.508;2023-03-21T04:08:19;101727.47;;;10.44;85.70
17936;BME280;9093;52.062;4.508;2023-03-21T04:11:02;101729.25;;;10.43;85.74
17936;BME280;9093;52.062;4.508;2023-03-21T04:13:42;101720.47;;;10.41;85.72
17936;BME280;9093;52.062;4.508;2023-03-21T04:16:23;101722.19;;;10.42;85.59
17936;BME280;9093;52.062;4.508;2023-03-21T04:19:03;101721.38;;;10.40;85.54
17936;BME280;9093;52.062;4.508;2023-03-21T04:21:44;101720.56;;;10.38;85.60
17936;BME280;9093;52.062;4.508;2023-03-21T04:24:25;101719.69;;;10.38;85.44
17936;BME280;9093;52.062;4.508;2023-03-21T04:27:06;101710.81;;;10.37;85.78
17936;BME280;9093;52.062;4.508;2023-03-21T04:29:46;101713.47;;;10.37;85.93
17936;BME280;9093;52.062;4.508;2023-03-21T04:32:27;101709.09;;;10.36;85.57
17936;BME280;9093;52.062;4.508;2023-03-21T04:35:09;101709.97;;;10.37;85.42
17936;BME280;9093;52.062;4.508;2023-03-21T04:37:50;101702.81;;;10.37;85.52
17936;BME280;9093;52.062;4.508;2023-03-21T04:40:30;101709.88;;;10.38;85.38
17936;BME280;9093;52.062;4.508;2023-03-21T04:43:10;101708.97;;;10.39;85.43
17936;BME280;9093;52.062;4.508;2023-03-21T04:45:51;101703.66;;;10.38;85.37
17936;BME280;9093;52.062;4.508;2023-03-21T04:48:31;101697.41;;;10.39;85.61
17936;BME280;9093;52.062;4.508;2023-03-21T04:51:12;101699.22;;;10.38;85.63
17936;BME280;9093;52.062;4.508;2023-03-21T04:53:52;101697.47;;;10.37;85.49
17936;BME280;9093;52.062;4.508;2023-03-21T04:56:36;101693.00;;;10.38;85.51
17936;BME280;9093;52.062;4.508;2023-03-21T04:59:17;101687.66;;;10.38;85.53
17936;BME280;9093;52.062;4.508;2023-03-21T05:01:58;101686.78;;;10.37;85.54
17936;BME280;9093;52.062;4.508;2023-03-21T05:04:38;101678.78;;;10.37;85.47
17936;BME280;9093;52.062;4.508;2023-03-21T05:07:19;101672.50;;;10.38;85.45
17936;BME280;9093;52.062;4.508;2023-03-21T05:10:07;101674.25;;;10.39;85.47
17936;BME280;9093;52.062;4.508;2023-03-21T05:12:47;101676.00;;;10.40;85.40
17936;BME280;9093;52.062;4.508;2023-03-21T05:15:28;101673.38;;;10.39;85.54
17936;BME280;9093;52.062;4.508;2023-03-21T05:18:08;101679.59;;;10.39;85.44
17936;BME280;9093;52.062;4.508;2023-03-21T05:20:52;101684.94;;;10.39;85.48
17936;BME280;9093;52.062;4.508;2023-03-21T05:23:33;101683.19;;;10.38;85.43
17936;BME280;9093;52.062;4.508;2023-03-21T05:26:17;101684.94;;;10.39;85.25
17936;BME280;9093;52.062;4.508;2023-03-21T05:28:57;101686.78;;;10.37;85.51
17936;BME280;9093;52.062;4.508;2023-03-21T05:31:37;101690.28;;;10.39;85.49
17936;BME280;9093;52.062;4.508;2023-03-21T05:34:18;101682.31;;;10.38;85.34
17936;BME280;9093;52.062;4.508;2023-03-21T05:36:58;101686.72;;;10.39;85.32
17936;BME280;9093;52.062;4.508;2023-03-21T05:39:39;101679.72;;;10.36;85.35
17936;BME280;9093;52.062;4.508;2023-03-21T05:42:19;101682.31;;;10.38;85.47
17936;BME280;9093;52.062;4.508;2023-03-21T05:45:00;101684.13;;;10.37;85.37
17936;BME280;9093;52.062;4.508;2023-03-21T05:47:40;101682.31;;;10.38;85.23
17936;BME280;9093;52.062;4.508;2023-03-21T05:50:20;101684.13;;;10.37;85.49
17936;BME280;9093;52.062;4.508;2023-03-21T05:53:01;101684.13;;;10.37;85.43
17936;BME280;9093;52.062;4.508;2023-03-21T05:55:41;101685.94;;;10.37;85.47
17936;BME280;9093;52.062;4.508;2023-03-21T05:58:22;101681.44;;;10.37;85.34
17936;BME280;9093;52.062;4.508;2023-03-21T06:01:02;101683.28;;;10.37;85.34
17936;BME280;9093;52.062;4.508;2023-03-21T06:03:43;101686.78;;;10.37;85.60
17936;BME280;9093;52.062;4.508;2023-03-21T06:06:23;101688.63;;;10.37;85.21
17936;BME280;9093;52.062;4.508;2023-03-21T06:09:03;101691.28;;;10.37;85.22
17936;BME280;9093;52.062;4.508;2023-03-21T06:11:47;101688.53;;;10.38;85.40
17936;BME280;9093;52.062;4.508;2023-03-21T06:14:28;101683.19;;;10.38;85.36
17936;BME280;9093;52.062;4.508;2023-03-21T06:17:08;101690.41;;;10.36;85.23
17936;BME280;9093;52.062;4.508;2023-03-21T06:19:49;101692.13;;;10.37;85.21
17936;BME280;9093;52.062;4.508;2023-03-21T06:22:30;101691.28;;;10.37;85.40
17936;BME280;9093;52.062;4.508;2023-03-21T06:25:10;101696.53;;;10.38;85.26
17936;BME280;9093;52.062;4.508;2023-03-21T06:27:51;101690.41;;;10.36;85.08
17936;BME280;9093;52.062;4.508;2023-03-21T06:30:31;101680.66;;;10.35;85.17
17936;BME280;9093;52.062;4.508;2023-03-21T06:33:11;101686.00;;;10.35;85.37
17936;BME280;9093;52.062;4.508;2023-03-21T06:35:53;101686.00;;;10.35;85.23
17936;BME280;9093;52.062;4.508;2023-03-21T06:38:33;101690.41;;;10.36;85.33
17936;BME280;9093;52.062;4.508;2023-03-21T06:41:17;101686.88;;;10.36;85.19
17936;BME280;9093;52.062;4.508;2023-03-21T06:43:57;101690.41;;;10.36;85.31
17936;BME280;9093;52.062;4.508;2023-03-21T06:46:37;101689.53;;;10.36;85.30
17936;BME280;9093;52.062;4.508;2023-03-21T06:49:19;101681.63;;;10.33;85.28
17936;BME280;9093;52.062;4.508;2023-03-21T06:51:59;101683.44;;;10.32;85.36
17936;BME280;9093;52.062;4.508;2023-03-21T06:54:39;101672.88;;;10.29;85.23
17936;BME280;9093;52.062;4.508;2023-03-21T06:57:20;101671.16;;;10.28;85.29
17936;BME280;9093;52.062;4.508;2023-03-21T07:00:01;101669.34;;;10.29;85.35
17936;BME280;9093;52.062;4.508;2023-03-21T07:02:41;101662.22;;;10.29;85.20
17936;BME280;9093;52.062;4.508;2023-03-21T07:05:21;101656.88;;;10.29;85.47
17936;BME280;9093;52.062;4.508;2023-03-21T07:08:02;101648.06;;;10.27;85.36
17936;BME280;9093;52.062;4.508;2023-03-21T07:10:43;101652.53;;;10.27;85.29
17936;BME280;9093;52.062;4.508;2023-03-21T07:13:25;101649.03;;;10.25;85.43
17936;BME280;9093;52.062;4.508;2023-03-21T07:16:05;101658.72;;;10.27;85.54
17936;BME280;9093;52.062;4.508;2023-03-21T07:18:46;101647.19;;;10.27;85.66
17936;BME280;9093;52.062;4.508;2023-03-21T07:21:27;101646.19;;;10.29;85.53
17936;BME280;9093;52.062;4.508;2023-03-21T07:24:07;101642.59;;;10.30;85.61
17936;BME280;9093;52.062;4.508;2023-03-21T07:26:47;101647.94;;;10.30;85.67
17936;BME280;9093;52.062;4.508;2023-03-21T07:29:28;101644.31;;;10.31;85.75
17936;BME280;9093;52.062;4.508;2023-03-21T07:32:10;101647.81;;;10.33;85.66
17936;BME280;9093;52.062;4.508;2023-03-21T07:34:50;101649.56;;;10.34;85.85
17936;BME280;9093;52.062;4.508;2023-03-21T07:37:31;101643.22;;;10.37;85.57
17936;BME280;9093;52.062;4.508;2023-03-21T07:40:11;101645.94;;;10.35;85.73
17936;BME280;9093;52.062;4.508;2023-03-21T07:42:52;101642.22;;;10.39;85.77
17936;BME280;9093;52.062;4.508;2023-03-21T07:45:32;101637.75;;;10.40;85.70
17936;BME280;9093;52.062;4.508;2023-03-21T07:48:13;101633.22;;;10.42;85.68
17936;BME280;9093;52.062;4.508;2023-03-21T07:50:56;101637.66;;;10.43;85.74
17936;BME280;9093;52.062;4.508;2023-03-21T07:53:36;101624.22;;;10.44;85.81
17936;BME280;9093;52.062;4.508;2023-03-21T07:56:17;101630.38;;;10.46;85.88
17936;BME280;9093;52.062;4.508;2023-03-21T07:58:57;101624.97;;;10.48;85.96
17936;BME280;9093;52.062;4.508;2023-03-21T08:01:38;101622.22;;;10.49;85.71
17936;BME280;9093;52.062;4.508;2023-03-21T08:04:19;101622.97;;;10.53;85.94
17936;BME280;9093;52.062;4.508;2023-03-21T08:06:59;101613.91;;;10.57;86.05
17936;BME280;9093;52.062;4.508;2023-03-21T08:09:39;101613.78;;;10.60;85.77
17936;BME280;9093;52.062;4.508;2023-03-21T08:12:21;101621.59;;;10.65;85.94
17936;BME280;9093;52.062;4.508;2023-03-21T08:15:02;101614.41;;;10.67;85.83
17936;BME280;9093;52.062;4.508;2023-03-21T08:17:42;101617.84;;;10.69;85.77
17936;BME280;9093;52.062;4.508;2023-03-21T08:20:24;101611.53;;;10.71;85.97
17936;BME280;9093;52.062;4.508;2023-03-21T08:23:05;101611.47;;;10.73;85.77
17936;BME280;9093;52.062;4.508;2023-03-21T08:25:45;101606.91;;;10.75;86.02
17936;BME280;9093;52.062;4.508;2023-03-21T08:28:26;101606.78;;;10.78;85.96
17936;BME280;9093;52.062;4.508;2023-03-21T08:31:08;101605.72;;;10.82;86.02
17936;BME280;9093;52.062;4.508;2023-03-21T08:33:48;101591.38;;;10.84;85.96
17936;BME280;9093;52.062;4.508;2023-03-21T08:36:35;101582.38;;;10.87;86.07
17936;BME280;9093;52.062;4.508;2023-03-21T08:39:16;101593.13;;;10.85;85.84
17936;BME280;9093;52.062;4.508;2023-03-21T08:41:56;101591.09;;;10.91;85.93
17936;BME280;9093;52.062;4.508;2023-03-21T08:44:36;101583.81;;;10.94;86.07
17936;BME280;9093;52.062;4.508;2023-03-21T08:47:18;101581.03;;;10.97;86.18
17936;BME280;9093;52.062;4.508;2023-03-21T08:49:59;101580.97;;;10.99;85.95
17936;BME280;9093;52.062;4.508;2023-03-21T08:52:39;101578.19;;;11.00;85.98
17936;BME280;9093;52.062;4.508;2023-03-21T08:55:20;101578.03;;;11.05;86.04
17936;BME280;9093;52.062;4.508;2023-03-21T08:58:00;101577.00;;;11.07;86.04
17936;BME280;9093;52.062;4.508;2023-03-21T09:00:41;101571.66;;;11.07;86.05
17936;BME280;9093;52.062;4.508;2023-03-21T09:03:21;101564.44;;;11.09;85.89
17936;BME280;9093;52.062;4.508;2023-03-21T09:06:01;101567.00;;;11.12;85.97
17936;BME280;9093;52.062;4.508;2023-03-21T09:08:41;101572.25;;;11.14;86.00
17936;BME280;9093;52.062;4.508;2023-03-21T09:11:22;101558.81;;;11.15;86.07
17936;BME280;9093;52.062;4.508;2023-03-21T09:14:03;101553.47;;;11.15;85.85
17936;BME280;9093;52.062;4.508;2023-03-21T09:16:43;101555.22;;;11.16;86.00
17936;BME280;9093;52.062;4.508;2023-03-21T09:19:23;101548.00;;;11.18;85.89
17936;BME280;9093;52.062;4.508;2023-03-21T09:22:04;101547.00;;;11.21;85.99
17936;BME280;9093;52.062;4.508;2023-03-21T09:24:48;101543.38;;;11.22;85.99
17936;BME280;9093;52.062;4.508;2023-03-21T09:27:29;101546.88;;;11.24;86.01
17936;BME280;9093;52.062;4.508;2023-03-21T09:30:10;101547.63;;;11.26;85.99
17936;BME280;9093;52.062;4.508;2023-03-21T09:32:52;101541.25;;;11.30;85.83
17936;BME280;9093;52.062;4.508;2023-03-21T09:35:34;101541.19;;;11.32;86.14
17936;BME280;9093;52.062;4.508;2023-03-21T09:38:15;101542.88;;;11.33;86.07
17936;BME280;9093;52.062;4.508;2023-03-21T09:47:14;101557.88;;;11.37;86.06
17936;BME280;9093;52.062;4.508;2023-03-21T09:49:55;101548.81;;;11.39;85.95
17936;BME280;9093;52.062;4.508;2023-03-21T09:52:45;101547.88;;;11.40;86.24
17936;BME280;9093;52.062;4.508;2023-03-21T09:55:35;101545.00;;;11.45;86.03
17936;BME280;9093;52.062;4.508;2023-03-21T09:58:25;101555.56;;;11.48;85.98
17936;BME280;9093;52.062;4.508;2023-03-21T10:01:12;101549.34;;;11.47;85.77
17936;BME280;9093;52.062;4.508;2023-03-21T10:04:13;101548.34;;;11.50;85.92
17936;BME280;9093;52.062;4.508;2023-03-21T10:07:00;101546.44;;;11.52;85.94
17936;BME280;9093;52.062;4.508;2023-03-21T10:09:41;101540.03;;;11.56;86.00
17936;BME280;9093;52.062;4.508;2023-03-21T10:12:23;101528.25;;;11.60;85.79
17936;BME280;9093;52.062;4.508;2023-03-21T10:15:15;101531.63;;;11.63;86.00
17936;BME280;9093;52.062;4.508;2023-03-21T10:18:04;101544.06;;;11.64;86.01
17936;BME280;9093;52.062;4.508;2023-03-21T10:20:45;101548.34;;;11.68;86.13
17936;BME280;9093;52.062;4.508;2023-03-21T10:23:27;101565.28;;;11.69;86.12
17936;BME280;9093;52.062;4.508;2023-03-21T10:26:08;101575.09;;;11.68;86.01
17936;BME280;9093;52.062;4.508;2023-03-21T10:28:48;101568.88;;;11.68;86.08
17936;BME280;9093;52.062;4.508;2023-03-21T10:31:29;101566.22;;;11.68;86.12
17936;BME280;9093;52.062;4.508;2023-03-21T10:34:31;101576.91;;;11.68;86.13
17936;BME280;9093;52.062;4.508;2023-03-21T10:37:12;101574.06;;;11.71;86.01
17936;BME280;9093;52.062;4.508;2023-03-21T10:39:54;101565.28;;;11.69;86.10
17936;BME280;9093;52.062;4.508;2023-03-21T10:42:34;101568.00;;;11.67;86.32
17936;BME280;9093;52.062;4.508;2023-03-21T10:45:17;101570.81;;;11.64;86.18
17936;BME280;9093;52.062;4.508;2023-03-21T10:48:06;101558.47;;;11.62;86.26
17936;BME280;9093;52.062;4.508;2023-03-21T10:50:49;101552.97;;;11.65;86.18
17936;BME280;9093;52.062;4.508;2023-03-21T10:53:45;101543.28;;;11.62;86.06
17936;BME280;9093;52.062;4.508;2023-03-21T10:56:34;101536.97;;;11.63;86.27
17936;BME280;9093;52.062;4.508;2023-03-21T10:59:17;101539.59;;;11.65;86.34
17936;BME280;9093;52.062;4.508;2023-03-21T11:02:02;101526.97;;;11.68;86.25
17936;BME280;9093;52.062;4.508;2023-03-21T11:04:43;101526.69;;;11.75;86.25
17936;BME280;9093;52.062;4.508;2023-03-21T11:07:27;101523.78;;;11.79;86.12
17936;BME280;9093;52.062;4.508;2023-03-21T11:10:14;101518.31;;;11.82;86.13
17936;BME280;9093;52.062;4.508;2023-03-21T11:12:56;101507.31;;;11.88;85.91
17936;BME280;9093;52.062;4.508;2023-03-21T11:18:31;101526.50;;;11.96;85.69
17936;BME280;9093;52.062;4.508;2023-03-21T11:21:14;101523.75;;;11.98;85.96
17936;BME280;9093;52.062;4.508;2023-03-21T11:23:55;101524.63;;;11.98;85.98
17936;BME280;9093;52.062;4.508;2023-03-21T11:26:36;101531.72;;;11.99;85.99
17936;BME280;9093;52.062;4.508;2023-03-21T11:29:32;101533.59;;;11.97;85.88
17936;BME280;9093;52.062;4.508;2023-03-21T11:34:59;101529.13;;;11.98;85.95
17936;BME280;9093;52.062;4.508;2023-03-21T11:37:43;101542.56;;;11.96;85.91
17936;BME280;9093;52.062;4.508;2023-03-21T11:40:33;101549.81;;;11.94;85.93
17936;BME280;9093;52.062;4.508;2023-03-21T11:46:11;101530.00;;;11.98;85.71
17936;BME280;9093;52.062;4.508;2023-03-21T11:48:52;101523.47;;;12.04;85.40
17936;BME280;9093;52.062;4.508;2023-03-21T11:51:44;101534.75;;;12.11;85.08
17936;BME280;9093;52.062;4.508;2023-03-21T11:54:43;101532.56;;;12.19;84.79
17936;BME280;9093;52.062;4.508;2023-03-21T12:00:26;101515.16;;;12.27;84.70
17936;BME280;9093;52.062;4.508;2023-03-21T12:06:11;101501.06;;;12.41;84.24
17936;BME280;9093;52.062;4.508;2023-03-21T12:09:03;101486.75;;;12.42;84.19
17936;BME280;9093;52.062;4.508;2023-03-21T12:17:54;101506.03;;;12.48;83.95
17936;BME280;9093;52.062;4.508;2023-03-21T12:20:46;101497.13;;;12.48;84.02
17936;BME280;9093;52.062;4.508;2023-03-21T12:30:11;101481.06;;;12.48;83.46
17936;BME280;9093;52.062;4.508;2023-03-21T12:35:53;101472.88;;;12.51;83.39
17936;BME280;9093;52.062;4.508;2023-03-21T12:38:43;101474.44;;;12.55;83.17
17936;BME280;9093;52.062;4.508;2023-03-21T12:44:38;101472.56;;;12.57;82.96
17936;BME280;9093;52.062;4.508;2023-03-21T12:47:26;101478.38;;;12.65;82.80
17936;BME280;9093;52.062;4.508;2023-03-21T12:50:22;101470.00;;;12.71;82.54
17936;BME280;9093;52.062;4.508;2023-03-21T12:56:21;101450.94;;;12.77;82.27
17936;BME280;9093;52.062;4.508;2023-03-21T12:59:25;101467.00;;;12.77;82.31
17936;BME280;9093;52.062;4.508;2023-03-21T13:11:02;101436.91;;;12.72;82.23
17936;BME280;9093;52.062;4.508;2023-03-21T13:13:49;101435.97;;;12.73;82.14
17936;BME280;9093;52.062;4.508;2023-03-21T13:16:36;101434.16;;;12.74;82.21
17936;BME280;9093;52.062;4.508;2023-03-21T13:19:27;101440.53;;;12.71;81.94
17936;BME280;9093;52.062;4.508;2023-03-21T13:22:28;101438.97;;;12.67;81.69
17936;BME280;9093;52.062;4.508;2023-03-21T13:25:20;101446.22;;;12.65;81.72
17936;BME280;9093;52.062;4.508;2023-03-21T13:28:03;101436.47;;;12.64;81.51
17936;BME280;9093;52.062;4.508;2023-03-21T13:30:45;101435.69;;;12.62;81.42
17936;BME280;9093;52.062;4.508;2023-03-21T13:33:28;101442.78;;;12.63;81.18
17936;BME280;9093;52.062;4.508;2023-03-21T13:36:14;101430.31;;;12.62;81.19
17936;BME280;9093;52.062;4.508;2023-03-21T13:39:03;101433.09;;;12.61;81.22
17936;BME280;9093;52.062;4.508;2023-03-21T13:41:47;101432.22;;;12.60;81.08
17936;BME280;9093;52.062;4.508;2023-03-21T13:44:45;101432.53;;;12.54;80.95
17936;BME280;9093;52.062;4.508;2023-03-21T13:47:34;101420.09;;;12.53;80.89
17936;BME280;9093;52.062;4.508;2023-03-21T13:55:59;101411.91;;;12.56;80.64
17936;BME280;9093;52.062;4.508;2023-03-21T14:04:18;101404.00;;;12.53;80.70
17936;BME280;9093;52.062;4.508;2023-03-21T14:07:17;101395.97;;;12.53;80.75
17936;BME280;9093;52.062;4.508;2023-03-21T14:10:07;101400.41;;;12.54;80.68
17936;BME280;9093;52.062;4.508;2023-03-21T14:12:53;101405.75;;;12.54;80.73
17936;BME280;9093;52.062;4.508;2023-03-21T14:15:44;101412.16;;;12.52;80.87
17936;BME280;9093;52.062;4.508;2023-03-21T14:18:27;101416.00;;;12.46;81.00
17936;BME280;9093;52.062;4.508;2023-03-21T14:21:19;101424.03;;;12.46;80.89
17936;BME280;9093;52.062;4.508;2023-03-21T14:24:11;101419.72;;;12.43;80.56
17936;BME280;9093;52.062;4.508;2023-03-21T14:26:53;101409.88;;;12.44;80.97
17936;BME280;9093;52.062;4.508;2023-03-21T14:29:34;101413.31;;;12.46;80.71
17936;BME280;9093;52.062;4.508;2023-03-21T14:32:18;101419.53;;;12.46;80.77
17936;BME280;9093;52.062;4.508;2023-03-21T14:35:01;101411.44;;;12.48;80.77
17936;BME280;9093;52.062;4.508;2023-03-21T14:37:44;101416.78;;;12.48;80.79
17936;BME280;9093;52.062;4.508;2023-03-21T14:40:27;101415.91;;;12.47;80.65
17936;BME280;9093;52.062;4.508;2023-03-21T14:43:09;101409.16;;;12.40;80.78
17936;BME280;9093;52.062;4.508;2023-03-21T14:45:53;101399.31;;;12.41;80.82
17936;BME280;9093;52.062;4.508;2023-03-21T14:48:34;101402.78;;;12.43;80.74
17936;BME280;9093;52.062;4.508;2023-03-21T14:51:16;101401.91;;;12.42;80.81
17936;BME280;9093;52.062;4.508;2023-03-21T14:53:56;101388.44;;;12.44;80.71
17936;BME280;9093;52.062;4.508;2023-03-21T14:56:37;101392.06;;;12.43;80.71
17936;BME280;9093;52.062;4.508;2023-03-21T14:59:21;101381.34;;;12.43;80.54
17936;BME280;9093;52.062;4.508;2023-03-21T15:02:33;101392.22;;;12.40;80.40
17936;BME280;9093;52.062;4.508;2023-03-21T15:05:19;101384.97;;;12.42;80.38
17936;BME280;9093;52.062;4.508;2023-03-21T15:08:07;101388.59;;;12.41;80.35
17936;BME280;9093;52.062;4.508;2023-03-21T15:10:58;101402.94;;;12.40;80.41
17936;BME280;9093;52.062;4.508;2023-03-21T15:13:47;101410.00;;;12.41;80.40
17936;BME280;9093;52.062;4.508;2023-03-21T15:16:32;101401.03;;;12.42;80.30
17936;BME280;9093;52.062;4.508;2023-03-21T15:19:18;101400.97;;;12.43;80.39
17936;BME280;9093;52.062;4.508;2023-03-21T15:22:09;101390.19;;;12.45;80.15
17936;BME280;9093;52.062;4.508;2023-03-21T15:24:58;101409.69;;;12.47;80.00
17936;BME280;9093;52.062;4.508;2023-03-21T15:27:40;101391.56;;;12.52;79.87
17936;BME280;9093;52.062;4.508;2023-03-21T15:30:26;101371.47;;;12.61;79.85
17936;BME280;9093;52.062;4.508;2023-03-21T15:33:11;101372.81;;;12.69;79.58
17936;BME280;9093;52.062;4.508;2023-03-21T15:35:54;101373.16;;;12.79;79.59
17936;BME280;9093;52.062;4.508;2023-03-21T15:38:39;101377.50;;;12.81;79.53
17936;BME280;9093;52.062;4.508;2023-03-21T15:46:47;101382.66;;;12.84;79.57
17936;BME280;9093;52.062;4.508;2023-03-21T15:49:33;101380.97;;;12.83;79.55
17936;BME280;9093;52.062;4.508;2023-03-21T15:52:14;101372.91;;;12.83;79.48
17936;BME280;9093;52.062;4.508;2023-03-21T15:54:55;101371.19;;;12.82;79.57